Time;durP1;ratioP1;P1;durP2;ratioP2;P2;SDS_P1;SDS_P2;PMS_P1;PMS_P2;Temp;Humidity;BMP_temperature;BMP_pressure;BME280_temperature;BME280_humidity;BME280_pressure;Samples;Min_cycle;Max_cycle;Signal;HPM_P1;HPM_P2
2021/07/23 00:01:11;;;;;;;;;18.40;16.40;;;;;24.27;51.48;99034.00;6113505;28;96747;-62
2021/07/23 00:04:14;;;;;;;;;20.00;17.80;;;;;24.13;51.37;99016.66;6113474;28;97503;-62
2021/07/23 00:07:18;;;;;;;;;19.80;17.60;;;;;24.21;51.55;99038.00;6096215;28;97145;-60
2021/07/23 00:10:22;;;;;;;;;18.00;16.00;;;;;24.14;51.86;99032.84;6118328;28;96738;-62
2021/07/23 00:13:30;;;;;;;;;17.80;17.80;;;;;24.10;51.78;99029.09;6142365;28;97531;-61
2021/07/23 00:16:33;;;;;;;;;18.80;17.00;;;;;24.08;52.10;99025.84;6133058;28;96694;-62
2021/07/23 00:19:37;;;;;;;;;20.00;17.00;;;;;24.05;51.86;99026.44;6142126;28;96425;-61
2021/07/23 00:22:40;;;;;;;;;21.40;19.00;;;;;24.02;52.15;99031.75;6124008;28;96910;-61
2021/07/23 00:25:44;;;;;;;;;20.40;20.00;;;;;23.97;52.14;99031.84;6110687;28;97035;-62
2021/07/23 00:28:50;;;;;;;;;19.00;17.00;;;;;23.89;52.55;99027.88;6099982;28;97225;-62
2021/07/23 00:31:53;;;;;;;;;18.40;18.00;;;;;23.85;52.44;99028.78;6119000;28;96567;-60
2021/07/23 00:34:57;;;;;;;;;21.00;18.40;;;;;23.82;52.74;99029.38;6117187;28;97624;-62
2021/07/23 00:38:00;;;;;;;;;20.00;19.00;;;;;23.83;52.57;99029.09;6099637;28;97198;-61
2021/07/23 00:41:04;;;;;;;;;22.00;19.80;;;;;23.83;52.61;99026.34;6121620;28;96751;-62
2021/07/23 00:44:10;;;;;;;;;19.00;17.80;;;;;23.82;52.64;99038.47;6123292;28;96971;-61
2021/07/23 00:47:21;;;;;;;;;21.00;19.00;;;;;23.80;52.83;99034.41;6117938;28;97302;-61
2021/07/23 00:50:24;;;;;;;;;23.00;21.20;;;;;23.72;52.75;99033.16;6102248;28;97728;-61
2021/07/23 00:53:28;;;;;;;;;24.00;21.00;;;;;23.73;52.76;99032.03;6129322;28;97498;-61
2021/07/23 00:56:34;;;;;;;;;21.00;20.25;;;;;23.68;53.10;99026.63;6099540;28;97057;-62
2021/07/23 00:59:39;;;;;;;;;23.00;20.50;;;;;23.65;53.12;99030.00;6099587;28;96675;-60
2021/07/23 01:02:44;;;;;;;;;26.25;23.25;;;;;23.65;53.17;99019.00;6099518;28;97464;-62
2021/07/23 01:05:50;;;;;;;;;21.00;19.75;;;;;23.66;nan;99026.09;6116609;28;96927;-62
2021/07/23 01:08:54;;;;;;;;;21.00;20.00;;;;;23.64;53.07;99028.34;6116736;28;96518;-61
2021/07/23 01:12:01;;;;;;;;;22.60;20.60;;;;;23.60;53.06;99010.81;6083086;28;97153;-64
2021/07/23 01:15:12;;;;;;;;;22.20;19.60;;;;;23.61;53.17;99020.69;6099793;28;96658;-62
2021/07/23 01:18:16;;;;;;;;;24.50;23.00;;;;;23.59;53.20;99022.94;6119333;28;97530;-60
2021/07/23 01:21:29;;;;;;;;;22.00;20.00;;;;;23.59;53.23;99020.19;6117505;28;97491;-61
2021/07/23 01:24:36;;;;;;;;;25.00;21.75;;;;;23.59;53.53;99022.94;6098783;28;96483;-62
2021/07/23 01:27:45;;;;;;;;;21.00;20.00;;;;;23.57;53.25;99014.97;6099704;28;96584;-61
2021/07/23 01:31:17;;;;;;;;;23.60;21.20;;;;;23.56;53.41;99027.09;6103498;28;96775;-62
2021/07/23 01:34:21;;;;;;;;;22.40;20.00;;;;;23.53;53.62;99019.47;6098212;28;96824;-61
2021/07/23 01:37:25;;;;;;;;;21.25;20.50;;;;;23.52;53.72;99026.09;6114370;28;97607;-61
2021/07/23 01:40:30;;;;;;;;;21.20;19.20;;;;;23.51;53.85;99018.94;6129495;28;97674;-61
2021/07/23 01:43:34;;;;;;;;;20.80;20.00;;;;;23.48;53.96;99016.81;6140714;28;96563;-61
2021/07/23 01:46:37;;;;;;;;;20.40;19.40;;;;;23.41;54.27;99015.56;6121486;28;96550;-61
2021/07/23 01:49:46;;;;;;;;;20.00;18.40;;;;;23.42;54.26;99012.47;6121486;28;97596;-63
2021/07/23 01:52:54;;;;;;;;;23.40;21.40;;;;;23.39;54.14;99010.34;6113114;28;96899;-61
2021/07/23 01:56:01;;;;;;;;;21.50;19.50;;;;;23.33;54.49;99006.03;6114055;28;96594;-61
2021/07/23 01:59:07;;;;;;;;;19.00;18.60;;;;;23.32;54.17;99007.97;6127870;28;97457;-61
2021/07/23 02:02:14;;;;;;;;;19.00;18.00;;;;;23.34;54.36;99004.94;6122769;28;96849;-62
2021/07/23 02:05:19;;;;;;;;;21.40;19.80;;;;;23.35;54.51;99001.06;6122823;28;97382;-60
2021/07/23 02:08:23;;;;;;;;;19.60;18.00;;;;;23.35;54.59;99003.00;6122006;28;96640;-63
2021/07/23 02:11:30;;;;;;;;;21.00;20.00;;;;;23.39;54.44;98993.00;6104983;28;97742;-62
2021/07/23 02:14:34;;;;;;;;;21.40;19.00;;;;;23.40;54.05;99006.47;6140388;28;96558;-60
2021/07/23 02:17:38;;;;;;;;;18.20;17.80;;;;;23.42;54.10;98995.16;6090801;28;97632;-62
2021/07/23 02:20:46;;;;;;;;;18.80;16.80;;;;;23.46;53.98;98999.78;6090603;28;97364;-61
2021/07/23 02:23:50;;;;;;;;;21.20;19.00;;;;;23.49;54.01;99001.13;6078052;28;100015;-62
2021/07/23 02:26:55;;;;;;;;;18.60;16.60;;;;;23.48;53.50;98992.03;6114522;28;97437;-61
2021/07/23 02:29:59;;;;;;;;;19.00;18.00;;;;;23.52;53.29;98995.81;6114715;28;97471;-60
2021/07/23 02:33:08;;;;;;;;;21.00;19.50;;;;;23.53;53.25;98999.38;6108479;28;97613;-62
2021/07/23 02:36:12;;;;;;;;;22.40;19.40;;;;;23.57;53.10;99003.16;6090013;28;96532;-62
2021/07/23 02:39:17;;;;;;;;;20.00;20.00;;;;;23.58;52.90;98994.59;6090424;28;96766;-61
2021/07/23 02:42:32;;;;;;;;;17.00;16.00;;;;;23.59;53.32;98990.75;6098023;28;97283;-60
2021/07/23 02:45:36;;;;;;;;;20.25;19.00;;;;;23.56;53.15;98994.06;6096930;28;98498;-62
2021/07/23 02:48:41;;;;;;;;;23.40;21.40;;;;;23.58;53.10;98991.03;6113668;28;96548;-61
2021/07/23 02:51:44;;;;;;;;;21.00;20.00;;;;;23.57;53.36;98989.41;6115264;28;97616;-61
2021/07/23 02:54:48;;;;;;;;;21.00;19.00;;;;;23.56;53.82;98988.56;6114475;28;97514;-61
2021/07/23 02:57:54;;;;;;;;;18.80;17.80;;;;;23.55;53.61;98980.66;6114610;28;96578;-61
2021/07/23 03:01:03;;;;;;;;;19.00;18.00;;;;;23.39;53.87;98963.56;6115074;28;96425;-61
2021/07/23 03:04:09;;;;;;;;;19.80;19.00;;;;;23.54;54.19;98984.50;6113568;28;96533;-60
2021/07/23 03:07:15;;;;;;;;;18.00;16.50;;;;;23.54;54.09;98979.81;6097186;28;98508;-62
2021/07/23 03:10:22;;;;;;;;;19.00;17.00;;;;;23.55;54.15;98986.16;6111285;28;96315;-61
2021/07/23 03:13:27;;;;;;;;;19.50;18.50;;;;;23.57;54.04;98986.66;6088780;28;97709;-62
2021/07/23 03:16:33;;;;;;;;;20.00;19.00;;;;;23.59;53.50;98985.22;6100603;28;97516;-61
2021/07/23 03:19:37;;;;;;;;;20.00;18.00;;;;;23.61;53.05;98988.47;6103914;28;98131;-60
2021/07/23 03:22:42;;;;;;;;;21.00;19.50;;;;;23.59;53.57;98984.41;6086052;28;96870;-61
2021/07/23 03:26:06;;;;;;;;;19.60;17.40;;;;;23.57;54.11;98984.72;6069307;28;97713;-62
2021/07/23 03:29:21;;;;;;;;;19.00;18.00;;;;;23.52;54.26;98978.47;6095997;28;97458;-61
2021/07/23 03:32:25;;;;;;;;;20.40;18.00;;;;;23.51;54.20;98982.34;6108178;28;97404;-61
2021/07/23 03:35:29;;;;;;;;;18.00;17.00;;;;;23.54;54.29;98981.75;6111888;28;97271;-62
2021/07/23 03:38:37;;;;;;;;;18.75;16.75;;;;;23.51;54.11;98977.66;6095184;28;96623;-61
2021/07/23 03:41:42;;;;;;;;;19.80;17.80;;;;;23.56;53.94;98968.50;6077873;28;97549;-63
2021/07/23 03:44:55;;;;;;;;;19.00;19.00;;;;;23.53;54.36;98975.44;6062263;28;97775;-62
2021/07/23 03:48:02;;;;;;;;;17.00;15.00;;;;;23.53;54.03;98977.38;6101422;28;97587;-62
2021/07/23 03:51:09;;;;;;;;;16.00;15.00;;;;;23.48;54.26;98975.53;6079149;28;97012;-62
2021/07/23 03:54:14;;;;;;;;;21.00;20.00;;;;;23.43;54.42;98977.53;6077341;28;96565;-62
2021/07/23 03:57:18;;;;;;;;;19.00;17.00;;;;;23.45;54.69;98983.59;6093960;28;97499;-61
2021/07/23 04:00:24;;;;;;;;;22.00;19.00;;;;;23.43;54.23;98983.84;6087515;28;97433;-62
2021/07/23 04:03:32;;;;;;;;;21.25;19.00;;;;;23.41;54.44;98983.31;6083402;28;97573;-61
2021/07/23 04:06:41;;;;;;;;;16.50;16.50;;;;;23.37;54.56;98986.97;6098084;28;96695;-63
2021/07/23 04:09:45;;;;;;;;;17.80;16.80;;;;;23.43;54.01;98985.78;6096366;28;97217;-60
2021/07/23 04:12:50;;;;;;;;;16.00;15.00;;;;;23.46;53.85;98986.00;6098751;28;97604;-64
2021/07/23 04:15:55;;;;;;;;;21.60;18.60;;;;;23.51;53.34;98982.34;6085162;28;97915;-62
2021/07/23 04:19:04;;;;;;;;;23.40;19.40;;;;;23.57;53.57;98986.66;6114823;28;97465;-64
2021/07/23 04:22:11;;;;;;;;;18.00;17.00;;;;;23.63;52.99;98982.69;6122384;28;96430;-62
2021/07/23 04:25:30;;;;;;;;;20.00;19.00;;;;;23.64;53.07;98976.88;6122330;28;97105;-64
2021/07/23 04:28:33;;;;;;;;;20.00;16.00;;;;;23.70;52.90;98986.66;6107434;28;96667;-62
2021/07/23 04:31:38;;;;;;;;;17.80;15.00;;;;;23.75;52.76;98977.47;6115241;28;97268;-62
2021/07/23 04:34:42;;;;;;;;;17.00;17.00;;;;;23.80;52.26;98982.09;6121745;28;97800;-63
2021/07/23 04:37:49;;;;;;;;;19.60;18.00;;;;;23.81;51.86;98976.25;6107824;28;97845;-61
2021/07/23 04:41:12;;;;;;;;;17.00;16.00;;;;;23.89;51.64;98978.31;6142389;28;96423;-64
2021/07/23 04:44:23;;;;;;;;;18.00;16.00;;;;;23.97;51.36;98968.50;6122420;28;97158;-64
2021/07/23 04:47:34;;;;;;;;;18.80;16.00;;;;;24.05;51.15;98970.53;6123935;28;97113;-63
2021/07/23 04:50:38;;;;;;;;;17.20;14.80;;;;;24.12;50.87;98965.44;6097101;28;97035;-63
2021/07/23 04:54:00;;;;;;;;;15.00;14.00;;;;;24.19;50.89;98967.81;6117928;28;97430;-64
2021/07/23 04:57:29;;;;;;;;;16.00;14.20;;;;;24.25;50.73;98961.03;6115493;28;97997;-63
2021/07/23 05:00:37;;;;;;;;;18.60;17.60;;;;;24.31;50.23;98966.13;6111506;28;97154;-63
2021/07/23 05:03:43;;;;;;;;;16.50;14.75;;;;;24.40;49.86;98968.97;6117551;28;96505;-63
2021/07/23 05:06:47;;;;;;;;;17.40;15.00;;;;;24.43;49.26;98960.09;6133755;28;97191;-63
2021/07/23 05:09:51;;;;;;;;;16.00;16.00;;;;;24.49;49.44;98964.34;6141654;28;96991;-62
2021/07/23 05:12:54;;;;;;;;;16.00;15.00;;;;;24.53;49.12;98965.38;6108268;28;97402;-64
2021/07/23 05:15:58;;;;;;;;;14.80;14.00;;;;;24.59;47.89;98966.88;6099672;28;97755;-64
2021/07/23 05:19:04;;;;;;;;;17.00;15.60;;;;;24.61;48.18;98967.38;6131369;28;96398;-64
2021/07/23 05:22:08;;;;;;;;;16.40;15.00;;;;;24.66;48.53;98959.00;6140948;28;96598;-63
2021/07/23 05:25:12;;;;;;;;;17.00;16.00;;;;;24.76;48.31;98957.94;6123953;28;97566;-62
2021/07/23 05:28:16;;;;;;;;;16.40;14.40;;;;;24.79;48.00;98965.56;6140948;28;96456;-63
2021/07/23 05:31:40;;;;;;;;;17.00;15.00;;;;;24.91;48.19;98971.38;6139694;28;96767;-63
2021/07/23 05:34:45;;;;;;;;;16.00;16.00;;;;;24.97;47.91;98962.66;6131464;28;97560;-62
2021/07/23 05:37:48;;;;;;;;;20.00;17.00;;;;;25.07;48.17;98958.03;6127533;28;97261;-63
2021/07/23 05:40:51;;;;;;;;;16.60;15.60;;;;;25.19;47.62;98958.25;6127249;28;96405;-63
2021/07/23 05:43:55;;;;;;;;;17.20;15.20;;;;;25.19;47.84;98949.97;6128792;28;98061;-63
2021/07/23 05:46:59;;;;;;;;;18.40;17.00;;;;;25.25;48.11;98960.56;6121757;28;97393;-64
2021/07/23 05:50:05;;;;;;;;;16.60;15.00;;;;;25.34;48.28;98952.34;6108128;28;98028;-64
2021/07/23 05:53:08;;;;;;;;;17.00;15.00;;;;;25.49;47.16;98960.19;6117357;28;96745;-63
2021/07/23 05:56:11;;;;;;;;;18.00;16.20;;;;;25.63;48.22;98960.94;6139052;28;96925;-64
2021/07/23 05:59:18;;;;;;;;;19.00;17.60;;;;;25.85;46.68;98963.59;6122087;28;97254;-64
2021/07/23 06:02:21;;;;;;;;;21.40;18.40;;;;;25.79;46.19;98953.03;6138833;28;96880;-63
2021/07/23 06:05:26;;;;;;;;;20.00;18.00;;;;;25.96;46.85;98964.13;6121757;28;97485;-64
2021/07/23 06:08:29;;;;;;;;;19.40;16.40;;;;;26.23;46.64;98958.41;6136751;28;97445;-63
2021/07/23 06:11:33;;;;;;;;;20.60;19.20;;;;;26.40;45.69;98963.13;6126360;28;97229;-60
2021/07/23 06:14:37;;;;;;;;;21.00;19.50;;;;;26.43;44.99;98965.25;6126040;28;97646;-61
2021/07/23 06:17:40;;;;;;;;;19.50;17.00;;;;;26.55;45.54;98970.94;6123565;28;97494;-60
2021/07/23 06:20:45;;;;;;;;;20.25;18.75;;;;;26.75;44.91;98966.72;6103732;28;96472;-62
2021/07/23 06:23:48;;;;;;;;;19.00;17.00;;;;;27.00;44.97;98956.78;6097392;28;97211;-60
2021/07/23 06:26:51;;;;;;;;;18.80;16.80;;;;;27.16;44.31;98960.69;6114653;28;97497;-62
2021/07/23 06:29:55;;;;;;;;;19.40;18.00;;;;;27.31;43.57;98957.38;6096648;28;96619;-61
2021/07/23 06:32:59;;;;;;;;;18.00;16.75;;;;;27.39;44.14;98969.56;6097578;28;97316;-60
2021/07/23 06:36:04;;;;;;;;;20.80;19.40;;;;;27.56;43.80;98964.81;6103078;28;97488;-62
2021/07/23 06:39:07;;;;;;;;;18.20;17.00;;;;;27.72;43.10;98967.03;6113672;28;96591;-64
2021/07/23 06:42:11;;;;;;;;;19.50;19.00;;;;;27.80;42.16;98969.78;6115074;28;97537;-60
2021/07/23 06:45:14;;;;;;;;;19.00;17.40;;;;;27.90;42.25;98972.19;6098372;28;96497;-61
2021/07/23 06:48:17;;;;;;;;;20.60;18.60;;;;;27.99;41.74;98964.63;6100113;28;97548;-61
2021/07/23 06:51:22;;;;;;;;;21.60;18.40;;;;;28.05;41.67;98968.03;6114644;28;97162;-62
2021/07/23 06:54:26;;;;;;;;;18.40;17.60;;;;;28.21;41.51;98971.03;6101156;28;96489;-62
2021/07/23 06:57:32;;;;;;;;;18.00;18.00;;;;;28.33;41.96;98969.19;6114112;28;96578;-64
2021/07/23 07:00:35;;;;;;;;;18.25;17.00;;;;;28.61;42.50;98971.41;6097084;28;97406;-61
2021/07/23 07:03:38;;;;;;;;;19.50;17.50;;;;;28.87;41.27;98965.69;6113968;28;96616;-62
2021/07/23 07:06:43;;;;;;;;;23.60;18.00;;;;;29.11;40.75;98961.03;6103941;28;96765;-60
2021/07/23 07:09:46;;;;;;;;;20.00;18.00;;;;;29.25;39.66;98963.50;6113496;28;96837;-60
2021/07/23 07:12:55;;;;;;;;;21.40;18.00;;;;;29.29;38.33;98961.66;6096849;28;97260;-62
2021/07/23 07:16:01;;;;;;;;;20.60;18.00;;;;;29.29;39.61;98956.91;6092128;28;97155;-61
2021/07/23 07:19:04;;;;;;;;;25.00;23.00;;;;;29.45;39.78;98968.22;6114768;28;96621;-60
2021/07/23 07:22:09;;;;;;;;;21.00;20.00;;;;;29.64;40.03;98965.69;6137778;28;96980;-62
2021/07/23 07:25:13;;;;;;;;;20.00;19.00;;;;;29.70;38.54;98956.00;6115193;28;96454;-60
2021/07/23 07:28:16;;;;;;;;;22.50;22.00;;;;;30.03;38.28;98963.44;6133784;28;97101;-63
2021/07/23 07:31:34;;;;;;;;;20.50;19.00;;;;;30.24;37.82;98961.34;6120884;28;96585;-63
2021/07/23 07:34:38;;;;;;;;;20.80;18.00;;;;;30.45;38.02;98961.16;6137078;28;97272;-62
2021/07/23 07:37:42;;;;;;;;;19.40;18.00;;;;;30.64;37.21;98955.03;6109788;28;99718;-63
2021/07/23 07:40:46;;;;;;;;;16.00;15.60;;;;;30.79;37.11;98957.06;6137919;28;97337;-63
2021/07/23 07:43:49;;;;;;;;;20.00;17.00;;;;;30.88;36.72;98949.38;6137222;28;97505;-62
2021/07/23 07:46:53;;;;;;;;;18.00;17.00;;;;;31.09;35.86;98957.50;6137722;28;97274;-62
2021/07/23 07:49:56;;;;;;;;;18.25;17.75;;;;;31.10;35.12;98948.81;6137818;28;97300;-63
2021/07/23 07:53:08;;;;;;;;;20.00;16.50;;;;;31.26;34.69;98943.28;6138802;28;96621;-61
2021/07/23 07:56:12;;;;;;;;;17.00;15.50;;;;;31.46;35.56;98953.38;6113771;28;97294;-62
2021/07/23 07:59:17;;;;;;;;;21.00;19.00;;;;;31.75;36.60;98950.19;6136140;28;97232;-62
2021/07/23 08:02:20;;;;;;;;;17.80;16.20;;;;;31.83;34.21;98948.34;6135823;28;97995;-62
2021/07/23 08:05:24;;;;;;;;;14.00;13.00;;;;;31.98;34.27;98947.53;6136847;28;97446;-62
2021/07/23 08:08:29;;;;;;;;;19.00;16.67;;;;;32.33;34.62;98958.75;6136171;28;96690;-63
2021/07/23 08:11:33;;;;;;;;;14.40;13.60;;;;;32.63;33.10;98942.28;6136876;28;96829;-63
2021/07/23 08:14:39;;;;;;;;;16.60;15.40;;;;;32.87;32.04;98955.97;6106046;28;97287;-62
2021/07/23 08:17:43;;;;;;;;;13.00;11.00;;;;;32.48;30.53;98946.75;6115935;28;97504;-62
2021/07/23 08:20:50;;;;;;;;;10.40;10.00;;;;;32.22;30.75;98947.34;6112975;28;97484;-63
2021/07/23 08:23:55;;;;;;;;;12.00;11.00;;;;;32.24;30.73;98942.22;6101680;28;97593;-62
2021/07/23 08:26:58;;;;;;;;;11.00;11.00;;;;;32.19;30.73;98945.28;6098683;28;97670;-63
2021/07/23 08:30:02;;;;;;;;;12.00;12.00;;;;;31.89;31.09;98948.91;6106064;28;97460;-62
2021/07/23 08:33:05;;;;;;;;;12.00;12.00;;;;;32.08;32.39;98946.97;6080058;28;97227;-63
2021/07/23 08:36:09;;;;;;;;;12.00;11.00;;;;;32.44;32.11;98942.25;6101820;28;97546;-63
2021/07/23 08:39:14;;;;;;;;;12.40;10.00;;;;;32.78;30.84;98944.22;6117608;28;97897;-62
2021/07/23 08:42:25;;;;;;;;;9.00;9.00;;;;;32.72;28.23;98947.66;6115614;28;97603;-62
2021/07/23 08:45:29;;;;;;;;;8.75;8.75;;;;;32.65;28.09;98946.31;6116190;28;97742;-63
2021/07/23 08:48:33;;;;;;;;;10.00;9.00;;;;;32.70;30.33;98947.22;6079908;28;97596;-63
2021/07/23 08:51:36;;;;;;;;;8.75;8.75;;;;;33.09;30.21;98946.81;6109134;28;97538;-63
2021/07/23 08:54:41;;;;;;;;;9.00;9.00;;;;;33.36;30.73;98953.38;6103600;28;98354;-62
2021/07/23 08:57:45;;;;;;;;;10.20;9.20;;;;;33.67;29.54;98945.94;6103731;28;96423;-62
2021/07/23 09:00:49;;;;;;;;;10.00;10.00;;;;;33.83;28.66;98941.03;6116438;28;96738;-63
2021/07/23 09:03:52;;;;;;;;;10.80;10.20;;;;;33.99;28.59;98940.88;6116491;28;96674;-63
2021/07/23 09:07:38;;;;;;;;;10.80;9.80;;;;;34.16;28.45;98940.34;6109459;28;97158;-62
2021/07/23 09:10:44;;;;;;;;;12.00;11.00;;;;;33.59;27.59;98942.19;6099152;28;97595;-64
2021/07/23 09:13:48;;;;;;;;;12.00;11.00;;;;;33.26;28.34;98940.00;6115398;28;96442;-62
2021/07/23 09:16:55;;;;;;;;;10.20;8.20;;;;;33.47;30.66;98937.59;6121922;28;97261;-62
2021/07/23 09:20:03;;;;;;;;;12.00;10.00;;;;;33.72;27.85;98935.25;6131926;28;97882;-62
2021/07/23 09:23:06;;;;;;;;;11.80;11.00;;;;;33.92;29.02;98933.16;6135860;28;97426;-62
2021/07/23 09:26:17;;;;;;;;;12.60;12.00;;;;;34.21;28.16;98929.66;6111669;28;97735;-61
2021/07/23 09:29:21;;;;;;;;;11.00;10.00;;;;;34.64;27.65;98935.84;6140612;28;97474;-62
2021/07/23 09:32:27;;;;;;;;;11.00;10.00;;;;;34.92;27.46;98929.81;6113297;28;97623;-61
2021/07/23 09:35:31;;;;;;;;;13.00;12.00;;;;;34.79;26.68;98926.47;6129633;28;96708;-62
2021/07/23 09:38:39;;;;;;;;;11.00;10.00;;;;;34.54;26.68;98925.31;6136098;28;97601;-62
2021/07/23 09:41:44;;;;;;;;;12.80;11.80;;;;;34.71;26.46;98919.97;6122227;28;96527;-62
2021/07/23 09:44:47;;;;;;;;;11.40;10.40;;;;;34.77;27.72;98926.84;6139771;28;96910;-62
2021/07/23 09:48:07;;;;;;;;;12.60;12.00;;;;;34.72;26.89;98915.19;6129450;28;97547;-62
2021/07/23 09:51:11;;;;;;;;;12.00;11.00;;;;;34.67;26.70;98913.53;6129709;28;97801;-61
2021/07/23 09:54:14;;;;;;;;;12.00;10.00;;;;;34.77;27.21;98912.03;6138845;28;97469;-62
2021/07/23 09:57:24;;;;;;;;;12.40;11.40;;;;;34.87;26.69;98911.34;6139490;28;97515;-62
2021/07/23 10:00:29;;;;;;;;;12.00;11.00;;;;;35.02;25.54;98903.91;6139432;28;96497;-62
2021/07/23 10:03:32;;;;;;;;;11.00;10.80;;;;;35.12;27.13;98904.03;6139121;28;97588;-61
2021/07/23 10:06:41;;;;;;;;;11.00;11.00;;;;;35.54;25.08;98903.66;6123253;28;96667;-63
2021/07/23 10:09:44;;;;;;;;;11.00;10.40;;;;;35.63;26.25;98895.72;6137867;28;97937;-61
2021/07/23 10:12:52;;;;;;;;;11.60;11.20;;;;;35.74;25.89;98893.03;6139039;28;96438;-62
2021/07/23 10:15:55;;;;;;;;;12.00;11.00;;;;;35.44;24.52;98892.34;6139499;28;96959;-61
2021/07/23 10:19:09;;;;;;;;;12.50;11.50;;;;;35.29;25.17;98891.41;6105621;28;96951;-60
2021/07/23 10:22:13;;;;;;;;;12.67;12.00;;;;;35.16;26.11;98892.84;6126969;28;97036;-61
2021/07/23 10:25:18;;;;;;;;;15.00;13.00;;;;;35.12;26.35;98887.22;6124813;28;99010;-61
2021/07/23 10:28:57;;;;;;;;;13.00;12.00;;;;;34.89;25.22;98877.38;6139281;28;96667;-61
2021/07/23 10:32:01;;;;;;;;;11.00;10.75;;;;;35.10;26.21;98877.56;6135283;28;97470;-62
2021/07/23 10:35:31;;;;;;;;;13.00;12.60;;;;;34.94;26.86;98872.22;6135646;28;96935;-61
2021/07/23 10:38:34;;;;;;;;;14.00;12.00;;;;;34.93;25.38;98872.59;6135489;28;96685;-61
2021/07/23 10:41:39;;;;;;;;;12.00;10.00;;;;;35.08;24.58;98869.56;6139007;28;97253;-61
2021/07/23 10:44:55;;;;;;;;;13.00;12.00;;;;;34.90;24.65;98864.94;6127891;28;97699;-63
2021/07/23 10:47:59;;;;;;;;;11.20;10.20;;;;;34.88;25.96;98861.75;6138588;28;98054;-62
2021/07/23 10:51:03;;;;;;;;;14.00;13.00;;;;;35.04;26.05;98865.13;6138577;28;97148;-63
2021/07/23 10:54:06;;;;;;;;;11.00;11.00;;;;;35.50;25.98;98857.16;6137321;28;96578;-63
2021/07/23 10:57:15;;;;;;;;;13.60;12.00;;;;;35.48;25.08;98845.53;6138297;28;97548;-61
2021/07/23 11:00:50;;;;;;;;;13.00;11.00;;;;;35.46;23.67;98847.91;6138288;28;96626;-63
2021/07/23 11:04:01;;;;;;;;;11.00;11.00;;;;;35.65;25.01;98850.47;6136112;28;97321;-61
2021/07/23 11:07:06;;;;;;;;;14.40;12.00;;;;;35.86;24.56;98850.66;6135133;28;97139;-62
2021/07/23 11:10:13;;;;;;;;;11.00;11.00;;;;;36.27;23.49;98847.69;6135047;28;96401;-61
2021/07/23 11:13:16;;;;;;;;;10.75;10.75;;;;;36.39;23.02;98836.13;6128716;28;96606;-61
2021/07/23 11:16:26;;;;;;;;;13.00;11.00;;;;;36.18;22.50;98821.97;6136777;28;97448;-62
2021/07/23 11:19:29;;;;;;;;;13.75;12.25;;;;;36.10;23.04;98832.34;6138443;28;96424;-60
2021/07/23 11:22:36;;;;;;;;;12.00;11.00;;;;;35.98;23.48;98833.47;6138402;28;96851;-61
2021/07/23 11:25:40;;;;;;;;;12.00;11.00;;;;;35.97;23.58;98831.88;6139812;28;96396;-60
2021/07/23 11:28:48;;;;;;;;;13.00;13.00;;;;;36.03;22.87;98843.53;6137938;28;97429;-60
2021/07/23 11:32:02;;;;;;;;;12.00;11.00;;;;;36.07;23.21;98830.31;6131538;28;96653;-60
2021/07/23 11:35:10;;;;;;;;;10.60;10.20;;;;;36.42;23.46;98826.91;6135924;28;97886;-62
2021/07/23 11:38:16;;;;;;;;;13.80;12.80;;;;;36.60;22.99;98827.78;6132820;28;96749;-61
2021/07/23 11:41:20;;;;;;;;;13.00;13.00;;;;;36.42;20.79;98824.09;6116769;28;97438;-62
2021/07/23 11:44:23;;;;;;;;;13.00;11.00;;;;;36.51;20.96;98832.94;6130524;28;96728;-62
2021/07/23 11:47:33;;;;;;;;;11.25;10.25;;;;;36.51;21.63;98830.13;6139008;28;96788;-62
2021/07/23 11:50:37;;;;;;;;;11.00;10.00;;;;;36.22;21.60;98820.81;6137665;28;97472;-61
2021/07/23 11:53:42;;;;;;;;;11.00;9.25;;;;;36.18;21.32;98822.78;6136353;28;96729;-62
2021/07/23 11:56:45;;;;;;;;;11.80;11.00;;;;;36.24;20.88;98820.41;6119581;28;96613;-61
2021/07/23 11:59:49;;;;;;;;;14.50;13.50;;;;;36.36;20.96;98815.25;6137613;28;97816;-60
2021/07/23 12:02:55;;;;;;;;;12.40;11.00;;;;;36.55;20.76;98814.13;6137429;28;97964;-62
2021/07/23 12:06:09;;;;;;;;;11.60;11.00;;;;;36.75;20.94;98821.00;6127294;28;96973;-62
2021/07/23 12:09:13;;;;;;;;;11.00;10.00;;;;;36.76;21.11;98819.00;6124170;28;98024;-62
2021/07/23 12:12:17;;;;;;;;;11.00;10.00;;;;;36.85;22.67;98814.63;6118769;28;96846;-62
2021/07/23 12:15:21;;;;;;;;;12.20;11.20;;;;;36.68;21.20;98808.97;6132349;28;96857;-62
2021/07/23 12:18:26;;;;;;;;;12.00;11.60;;;;;36.64;22.08;98814.59;6120421;28;97488;-62
2021/07/23 12:21:29;;;;;;;;;12.00;10.50;;;;;36.36;21.09;98806.81;6116666;28;96690;-62
2021/07/23 12:24:33;;;;;;;;;15.20;13.80;;;;;36.41;23.68;98811.25;6100696;28;96780;-62
2021/07/23 12:27:36;;;;;;;;;10.00;10.00;;;;;36.45;22.84;98812.91;6118228;28;97795;-62
2021/07/23 12:30:41;;;;;;;;;12.00;12.00;;;;;36.68;22.17;98801.34;6105740;28;97036;-62
2021/07/23 12:33:46;;;;;;;;;13.00;12.00;;;;;36.93;22.08;98803.41;6093782;28;96794;-62
2021/07/23 12:36:50;;;;;;;;;12.20;10.20;;;;;36.96;21.22;98809.00;6112590;28;97390;-62
2021/07/23 12:39:58;;;;;;;;;13.40;12.80;;;;;37.12;22.19;98803.84;6092254;28;97415;-62
2021/07/23 12:43:14;;;;;;;;;12.50;11.00;;;;;37.40;22.48;98802.22;6115783;28;97563;-61
2021/07/23 12:46:29;;;;;;;;;11.20;10.80;;;;;37.22;21.71;98793.81;6118098;28;96480;-61
2021/07/23 12:49:40;;;;;;;;;12.40;11.40;;;;;37.36;20.64;98796.63;6116535;28;97408;-62
2021/07/23 12:52:50;;;;;;;;;11.20;10.80;;;;;37.19;20.88;98791.81;6103844;28;97383;-60
2021/07/23 12:55:58;;;;;;;;;14.00;13.00;;;;;36.92;20.74;98788.53;6115763;28;96932;-61
2021/07/23 12:59:01;;;;;;;;;11.50;11.00;;;;;36.77;22.22;98786.91;6116077;28;97798;-61
2021/07/23 13:02:05;;;;;;;;;13.00;12.00;;;;;36.70;22.29;98787.69;6090375;28;98520;-60
2021/07/23 13:05:10;;;;;;;;;13.00;13.00;;;;;36.34;21.36;98785.97;6105230;28;97236;-61
2021/07/23 13:08:14;;;;;;;;;14.00;13.00;;;;;36.01;21.51;98784.19;6108652;28;97477;-60
2021/07/23 13:11:20;;;;;;;;;12.00;11.40;;;;;36.04;23.99;98777.78;6111014;28;97553;-60
2021/07/23 13:14:26;;;;;;;;;13.50;11.00;;;;;36.32;22.17;98779.94;6122323;28;97430;-60
2021/07/23 13:17:31;;;;;;;;;11.00;10.00;;;;;36.64;23.48;98774.44;6113989;28;97281;-61
2021/07/23 13:20:36;;;;;;;;;12.60;12.00;;;;;36.64;21.67;98778.06;6106101;28;98083;-61
2021/07/23 13:23:39;;;;;;;;;12.80;11.80;;;;;36.44;20.13;98771.97;6120561;28;97553;-61
2021/07/23 13:26:43;;;;;;;;;15.00;14.00;;;;;35.59;20.78;98762.28;6116169;28;98161;-61
2021/07/23 13:29:47;;;;;;;;;13.00;13.00;;;;;35.22;22.68;98778.44;6096733;28;96829;-61
2021/07/23 13:32:50;;;;;;;;;13.00;13.00;;;;;35.10;23.56;98768.28;6106582;28;96895;-61
2021/07/23 13:36:03;;;;;;;;;14.00;12.00;;;;;35.14;23.32;98766.31;6090546;28;97714;-60
2021/07/23 13:39:14;;;;;;;;;14.00;12.60;;;;;35.17;22.01;98763.59;6112183;28;97169;-61
2021/07/23 13:42:19;;;;;;;;;12.00;11.20;;;;;35.03;22.01;98757.84;6096394;28;97058;-60
2021/07/23 13:45:23;;;;;;;;;17.80;14.80;;;;;34.98;23.23;98758.19;6098476;28;96489;-61
2021/07/23 13:48:26;;;;;;;;;12.00;11.00;;;;;35.04;22.98;98753.06;6106565;28;97501;-61
2021/07/23 13:51:31;;;;;;;;;11.50;11.50;;;;;35.03;23.38;98752.25;6102547;28;97290;-61
2021/07/23 13:54:34;;;;;;;;;13.00;12.40;;;;;35.00;24.25;98758.59;6103409;28;97483;-61
2021/07/23 13:57:38;;;;;;;;;12.50;12.00;;;;;34.85;23.84;98750.44;6105497;28;97295;-61
2021/07/23 14:00:41;;;;;;;;;13.00;13.00;;;;;34.70;23.39;98755.91;6088692;28;97545;-61
2021/07/23 14:03:49;;;;;;;;;13.00;12.00;;;;;34.52;23.97;98749.31;6111109;28;96764;-61
2021/07/23 14:06:54;;;;;;;;;13.00;12.00;;;;;34.42;24.19;98755.59;6107651;28;97170;-61
2021/07/23 14:10:00;;;;;;;;;11.20;10.80;;;;;34.45;23.72;98749.25;6109410;28;96653;-61
2021/07/23 14:13:04;;;;;;;;;12.00;11.00;;;;;34.29;22.77;98757.06;6106732;28;97477;-60
2021/07/23 14:16:08;;;;;;;;;12.00;11.00;;;;;34.23;23.95;98752.97;6130384;28;96588;-61